createdAt,value
2023-04-09T00:02:06.695Z,99772.38
2023-04-09T00:04:53.920Z,99780.34
2023-04-09T00:07:42.591Z,99771.78
2023-04-09T00:10:30.947Z,99777.50
2023-04-09T00:13:22.764Z,99781.69
2023-04-09T00:16:18.906Z,99777.94
2023-04-09T00:19:06.083Z,99775.56
2023-04-09T00:21:53.148Z,99745.25
2023-04-09T00:24:40.651Z,99765.38
2023-04-09T00:27:27.684Z,99763.78
2023-04-09T00:30:14.773Z,99753.69
2023-04-09T00:33:01.876Z,99751.31
2023-04-09T00:35:49.001Z,99758.38
2023-04-09T00:38:36.284Z,99730.06
2023-04-09T00:41:23.601Z,99740.34
2023-04-09T00:44:10.751Z,99729.25
2023-04-09T00:46:59.660Z,99771.94
2023-04-09T00:49:46.889Z,99740.34
2023-04-09T00:52:34.249Z,99768.72
2023-04-09T00:55:22.567Z,99772.63
2023-04-09T00:58:09.719Z,99722.78
2023-04-09T01:00:56.922Z,99775.56
2023-04-09T01:03:44.336Z,99754.50
2023-04-09T01:07:03.441Z,99780.97
2023-04-09T01:10:36.017Z,99745.69
2023-04-09T01:13:31.881Z,99777.47
2023-04-09T01:16:22.764Z,99786.56
2023-04-09T01:19:27.384Z,99747.88
2023-04-09T01:22:39.451Z,99780.97
2023-04-09T01:25:50.644Z,99776.59
2023-04-09T01:28:44.325Z,99776.94
2023-04-09T01:31:36.893Z,99758.84
2023-04-09T01:34:25.624Z,99736.94
2023-04-09T01:37:14.468Z,99728.69
2023-04-09T01:40:02.239Z,99724.22
2023-04-09T01:42:51.290Z,99752.22
2023-04-09T01:45:39.076Z,99717.00
2023-04-09T01:48:27.364Z,99717.75
2023-04-09T01:51:15.812Z,99731.34
2023-04-09T01:54:04.093Z,99746.91
2023-04-09T01:56:51.246Z,99724.78
2023-04-09T01:59:38.302Z,99758.31
2023-04-09T02:02:37.405Z,99743.97
2023-04-09T02:05:28.294Z,99752.72
2023-04-09T02:08:21.133Z,99746.91
2023-04-09T02:11:11.132Z,99753.47
2023-04-09T02:13:58.527Z,99717.28
2023-04-09T02:16:46.704Z,99749.00
2023-04-09T02:19:45.009Z,99723.38
2023-04-09T02:22:32.154Z,99751.47
2023-04-09T02:25:19.547Z,99743.69
2023-04-09T02:28:06.708Z,99709.63
2023-04-09T02:30:53.846Z,99732.00
2023-04-09T02:33:41.070Z,99720.72
2023-04-09T02:36:28.205Z,99739.03
2023-04-09T02:39:15.616Z,99701.19
2023-04-09T02:42:02.841Z,99711.44
2023-04-09T02:44:49.934Z,99697.38
2023-04-09T02:47:37.196Z,99732.66
2023-04-09T02:50:24.409Z,99729.91
2023-04-09T02:53:11.620Z,99734.94
2023-04-09T02:55:58.721Z,99705.34
2023-04-09T02:58:45.878Z,99737.31
2023-04-09T03:01:33.118Z,99722.69
2023-04-09T03:04:20.340Z,99733.06
2023-04-09T03:07:07.543Z,99737.91
2023-04-09T03:09:54.684Z,99686.94
2023-04-09T03:12:44.598Z,99715.69
2023-04-09T03:15:31.728Z,99704.59
2023-04-09T03:18:19.101Z,99725.28
2023-04-09T03:21:07.739Z,99722.53
2023-04-09T03:23:54.820Z,99738.59
2023-04-09T03:26:42.044Z,99702.50
2023-04-09T03:29:29.161Z,99704.41
2023-04-09T03:32:17.892Z,99683.63
2023-04-09T03:35:06.392Z,99724.22
2023-04-09T03:37:53.696Z,99705.72
2023-04-09T03:40:42.216Z,99698.50
2023-04-09T03:43:29.396Z,99726.88
2023-04-09T03:46:18.052Z,99711.78
2023-04-09T03:49:05.590Z,99729.16
2023-04-09T03:51:55.955Z,99728.22
2023-04-09T03:54:43.775Z,99713.81
2023-04-09T03:57:30.884Z,99698.44
2023-04-09T04:00:18.108Z,99709.91
2023-04-09T04:03:05.721Z,99747.00
2023-04-09T04:05:53.159Z,99748.25
2023-04-09T04:08:40.304Z,99749.59
2023-04-09T04:11:27.424Z,99738.00
2023-04-09T04:14:14.634Z,99769.91
2023-04-09T04:17:01.716Z,99774.06
2023-04-09T04:19:55.533Z,99782.63
2023-04-09T04:22:42.611Z,99780.34
2023-04-09T04:25:29.840Z,99770.19
2023-04-09T04:28:17.113Z,99779.28
2023-04-09T04:31:11.619Z,99757.06
2023-04-09T04:33:58.756Z,99763.25
2023-04-09T04:36:45.863Z,99759.06
2023-04-09T04:39:33.178Z,99788.53
2023-04-09T04:42:20.274Z,99774.06
2023-04-09T04:45:08.189Z,99802.25
2023-04-09T04:47:55.395Z,99794.31
2023-04-09T04:50:42.775Z,99793.44
2023-04-09T04:53:30.039Z,99790.59
2023-04-09T04:56:17.190Z,99766.28
2023-04-09T04:59:04.308Z,99783.66
2023-04-09T05:01:51.486Z,99771.88
2023-04-09T05:04:40.646Z,99792.13
2023-04-09T05:07:27.901Z,99783.47
2023-04-09T05:10:15.150Z,99795.91
2023-04-09T05:13:02.371Z,99812.53
2023-04-09T05:15:49.586Z,99765.25
2023-04-09T05:18:38.881Z,99808.81
2023-04-09T05:21:26.580Z,99817.06
2023-04-09T05:24:13.807Z,99787.28
2023-04-09T05:27:01.498Z,99797.53
2023-04-09T05:29:48.726Z,99825.06
2023-04-09T05:32:36.217Z,99830.88
2023-04-09T05:35:30.376Z,99796.31
2023-04-09T05:38:17.492Z,99804.19
2023-04-09T05:41:04.805Z,99820.59
2023-04-09T05:43:52.184Z,99831.91
2023-04-09T05:46:39.570Z,99829.34
2023-04-09T05:49:26.784Z,99830.00
2023-04-09T05:52:28.089Z,99826.09
2023-04-09T05:55:16.295Z,99781.47
2023-04-09T05:58:11.266Z,99778.97
2023-04-09T06:01:07.509Z,99820.22
2023-04-09T06:04:08.580Z,99782.97
2023-04-09T06:06:59.472Z,99816.41
2023-04-09T06:09:53.447Z,99803.19
2023-04-09T06:13:13.484Z,99831.41
2023-04-09T06:16:12.110Z,99785.75
2023-04-09T06:19:12.702Z,99844.81
2023-04-09T06:22:08.757Z,99806.91
2023-04-09T06:24:58.471Z,99826.16
2023-04-09T06:27:57.457Z,99850.09
2023-04-09T06:30:48.812Z,99791.28
2023-04-09T06:33:42.338Z,99836.03
2023-04-09T06:36:37.253Z,99823.00
2023-04-09T06:39:24.369Z,99844.91
2023-04-09T06:42:11.382Z,99841.00
2023-04-09T06:44:58.435Z,99840.75
2023-04-09T06:47:45.495Z,99840.47
2023-04-09T06:50:32.671Z,99840.50
2023-04-09T06:53:20.214Z,99847.28
2023-04-09T06:56:08.526Z,99849.53
2023-04-09T06:58:55.568Z,99854.31
2023-04-09T07:01:43.336Z,99853.41
2023-04-09T07:04:30.589Z,99849.94
2023-04-09T07:07:17.954Z,99857.38
2023-04-09T07:10:06.482Z,99857.28
2023-04-09T07:12:53.522Z,99841.53
2023-04-09T07:15:42.444Z,99853.56
2023-04-09T07:18:31.245Z,99860.63
2023-04-09T07:21:18.300Z,99852.03
2023-04-09T07:24:05.916Z,99851.47
2023-04-09T07:26:53.965Z,99851.81
2023-04-09T07:29:44.750Z,99850.31
2023-04-09T07:32:32.262Z,99856.16
2023-04-09T07:35:19.540Z,99849.34
2023-04-09T07:38:06.517Z,99855.09
2023-04-09T07:40:53.558Z,99842.06
2023-04-09T07:43:41.618Z,99855.63
2023-04-09T07:46:28.701Z,99855.19
2023-04-09T07:49:17.403Z,99852.72
2023-04-09T07:52:05.739Z,99858.31
2023-04-09T07:54:53.013Z,99832.69
2023-04-09T07:57:40.078Z,99846.63
2023-04-09T08:00:27.094Z,99850.78
2023-04-09T08:03:14.387Z,99837.88
2023-04-09T08:06:02.117Z,99863.66
2023-04-09T08:08:49.159Z,99863.91
2023-04-09T08:11:36.186Z,99866.00
2023-04-09T08:14:23.307Z,99865.91
2023-04-09T08:17:10.284Z,99873.41
2023-04-09T08:19:57.417Z,99871.34
2023-04-09T08:22:45.443Z,99876.34
2023-04-09T08:25:32.454Z,99874.53
2023-04-09T08:28:19.520Z,99879.25
2023-04-09T08:31:06.657Z,99874.53
2023-04-09T08:33:53.695Z,99884.09
2023-04-09T08:36:41.052Z,99888.19
2023-04-09T08:39:28.132Z,99878.56
2023-04-09T08:42:16.239Z,99890.94
2023-04-09T08:45:05.529Z,99881.94
2023-04-09T08:47:53.137Z,99897.88
2023-04-09T08:50:40.547Z,99894.78
2023-04-09T08:53:28.115Z,99894.84
2023-04-09T08:56:15.934Z,99889.94
2023-04-09T08:59:02.970Z,99885.75
2023-04-09T09:02:06.610Z,99889.81
2023-04-09T09:04:55.316Z,99892.88
2023-04-09T09:07:53.967Z,99898.09
2023-04-09T09:10:44.007Z,99900.31
2023-04-09T09:13:30.977Z,99901.53
2023-04-09T09:16:18.584Z,99895.25
2023-04-09T09:19:06.642Z,99887.72
2023-04-09T09:22:01.874Z,99901.84
2023-04-09T09:24:51.403Z,99879.56
2023-04-09T09:27:40.649Z,99897.13
2023-04-09T09:30:27.874Z,99895.69
2023-04-09T09:33:15.026Z,99893.25
2023-04-09T09:36:03.987Z,99888.38
2023-04-09T09:38:56.370Z,99891.63
2023-04-09T09:41:45.094Z,99893.06
2023-04-09T09:44:33.697Z,99893.47
2023-04-09T09:47:21.753Z,99881.81
2023-04-09T09:50:09.400Z,99892.38
2023-04-09T09:53:03.702Z,99898.19
2023-04-09T09:55:53.834Z,99892.91
2023-04-09T09:58:54.669Z,99888.66
2023-04-09T10:01:44.614Z,99885.34
2023-04-09T10:04:38.315Z,99899.13
2023-04-09T10:07:25.781Z,99897.84
2023-04-09T10:10:13.006Z,99887.81
2023-04-09T10:13:00.822Z,99891.88
2023-04-09T10:15:48.860Z,99892.97
2023-04-09T10:18:36.860Z,99894.75
2023-04-09T10:21:57.938Z,99895.53
2023-04-09T10:24:45.866Z,99884.84
2023-04-09T10:27:32.878Z,99887.22
2023-04-09T10:30:36.818Z,99878.84
2023-04-09T10:33:29.071Z,99872.78
2023-04-09T10:36:19.339Z,99886.19
2023-04-09T10:39:13.868Z,99886.91
2023-04-09T10:42:09.061Z,99882.53
2023-04-09T10:45:09.226Z,99880.22
2023-04-09T10:47:56.644Z,99877.69
2023-04-09T10:50:44.799Z,99879.75
2023-04-09T10:53:32.648Z,99866.56
2023-04-09T10:56:19.641Z,99870.97
2023-04-09T10:59:06.901Z,99870.22
2023-04-09T11:01:55.069Z,99867.44
2023-04-09T11:04:48.260Z,99883.38
2023-04-09T11:07:40.493Z,99871.59
2023-04-09T11:10:28.551Z,99867.94
2023-04-09T11:13:17.355Z,99869.78
2023-04-09T11:16:07.344Z,99875.34
2023-04-09T11:18:56.305Z,99870.25
2023-04-09T11:21:46.528Z,99872.69
2023-04-09T11:24:43.688Z,99855.50
2023-04-09T11:27:30.809Z,99868.78
2023-04-09T11:30:18.237Z,99876.56
2023-04-09T11:33:07.212Z,99860.34
2023-04-09T11:35:54.332Z,99865.81
2023-04-09T11:38:41.542Z,99873.75
2023-04-09T11:41:38.788Z,99866.38
2023-04-09T11:44:25.945Z,99870.97
2023-04-09T11:47:19.257Z,99873.56
2023-04-09T11:50:08.368Z,99871.97
2023-04-09T11:52:55.679Z,99866.94
2023-04-09T11:55:42.923Z,99865.97
2023-04-09T11:58:29.931Z,99866.59
2023-04-09T12:01:17.240Z,99880.25
2023-04-09T12:04:05.933Z,99880.06
2023-04-09T12:07:02.342Z,99881.78
2023-04-09T12:09:49.483Z,99871.72
2023-04-09T12:12:47.977Z,99880.72
2023-04-09T12:15:37.201Z,99886.38
2023-04-09T12:18:24.885Z,99890.03
2023-04-09T12:21:11.954Z,99893.66
2023-04-09T12:23:59.013Z,99890.03
2023-04-09T12:26:47.193Z,99893.94
2023-04-09T12:29:34.323Z,99888.53
2023-04-09T12:32:21.554Z,99892.38
2023-04-09T12:35:08.951Z,99887.03
2023-04-09T12:40:22.903Z,99872.47
2023-04-09T12:43:09.940Z,99866.19
2023-04-09T12:45:57.304Z,99872.28
2023-04-09T12:48:44.333Z,99880.47
2023-04-09T12:51:31.416Z,99884.72
2023-04-09T12:54:18.439Z,99864.75
2023-04-09T12:57:05.962Z,99877.63
2023-04-09T12:59:56.887Z,99871.75
2023-04-09T13:02:44.200Z,99853.47
2023-04-09T13:05:35.496Z,99880.66
2023-04-09T13:08:22.655Z,99875.81
2023-04-09T13:11:09.689Z,99886.88
2023-04-09T13:13:56.780Z,99890.69
2023-04-09T13:16:43.897Z,99878.53
2023-04-09T13:19:31.323Z,99879.50
2023-04-09T13:22:19.027Z,99887.50
2023-04-09T13:25:06.392Z,99885.09
2023-04-09T13:27:53.416Z,99882.91
2023-04-09T13:30:40.571Z,99886.13
2023-04-09T13:33:27.613Z,99881.03
2023-04-09T13:36:14.857Z,99877.25
2023-04-09T13:39:08.734Z,99881.59
2023-04-09T13:41:56.457Z,99836.84
2023-04-09T13:44:46.891Z,99881.28
2023-04-09T13:47:37.510Z,99836.25
2023-04-09T13:50:24.757Z,99871.63
2023-04-09T13:53:12.734Z,99854.22
2023-04-09T13:55:59.817Z,99879.19
2023-04-09T13:58:47.531Z,99860.56
2023-04-09T14:01:34.846Z,99870.31
2023-04-09T14:04:22.763Z,99861.19
2023-04-09T14:07:09.876Z,99856.66
2023-04-09T14:09:57.036Z,99872.31
2023-04-09T14:12:44.094Z,99858.25
2023-04-09T14:15:31.253Z,99873.16
2023-04-09T14:18:18.358Z,99859.19
2023-04-09T14:21:08.108Z,99864.09
2023-04-09T14:23:56.599Z,99861.81
2023-04-09T14:26:43.797Z,99852.22
2023-04-09T14:29:30.895Z,99863.09
2023-04-09T14:32:18.159Z,99859.16
2023-04-09T14:35:06.088Z,99859.00
2023-04-09T14:37:53.137Z,99860.50
2023-04-09T14:40:40.326Z,99861.38
2023-04-09T14:43:27.804Z,99868.44
2023-04-09T14:46:14.932Z,99851.88
2023-04-09T14:49:02.255Z,99860.03
2023-04-09T14:51:49.562Z,99855.41
2023-04-09T14:54:37.982Z,99856.59
2023-04-09T14:57:25.926Z,99866.97
2023-04-09T15:00:13.533Z,99859.50
2023-04-09T15:03:00.938Z,99856.47
2023-04-09T15:05:48.434Z,99858.41
2023-04-09T15:08:35.513Z,99858.16
2023-04-09T15:11:23.212Z,99858.06
2023-04-09T15:14:10.430Z,99856.50
2023-04-09T15:16:57.549Z,99858.44
2023-04-09T15:19:44.597Z,99855.13
2023-04-09T15:22:31.718Z,99860.69
2023-04-09T15:25:18.794Z,99844.34
2023-04-09T15:28:06.874Z,99846.03
2023-04-09T15:30:55.032Z,99844.88
2023-04-09T15:33:47.066Z,99856.53
2023-04-09T15:36:34.159Z,99849.72
2023-04-09T15:39:24.610Z,99852.41
2023-04-09T15:42:12.853Z,99863.38
2023-04-09T15:45:01.626Z,99871.84
2023-04-09T15:47:48.723Z,99854.34
2023-04-09T15:50:35.853Z,99855.13
2023-04-09T15:53:26.724Z,99846.78
2023-04-09T15:56:17.009Z,99847.59
2023-04-09T15:59:05.444Z,99854.34
2023-04-09T16:01:53.168Z,99853.75
2023-04-09T16:04:40.581Z,99850.56
2023-04-09T16:07:27.786Z,99845.22
2023-04-09T16:10:14.816Z,99845.53
2023-04-09T16:13:03.233Z,99844.28
2023-04-09T16:15:51.247Z,99847.81
2023-04-09T16:18:38.452Z,99856.06
2023-04-09T16:21:25.975Z,99849.47
2023-04-09T16:24:14.131Z,99851.59
2023-04-09T16:27:01.671Z,99852.59
2023-04-09T16:29:48.783Z,99835.97
2023-04-09T16:32:35.958Z,99831.03
2023-04-09T16:35:23.107Z,99843.56
2023-04-09T16:38:10.402Z,99847.94
2023-04-09T16:40:57.560Z,99854.75
2023-04-09T16:43:46.698Z,99853.41
2023-04-09T16:46:33.769Z,99865.69
2023-04-09T16:49:20.846Z,99845.91
2023-04-09T16:52:08.004Z,99852.63
2023-04-09T16:54:55.572Z,99861.81
2023-04-09T16:57:43.021Z,99865.78
2023-04-09T17:00:30.057Z,99850.41
2023-04-09T17:03:17.256Z,99857.88
2023-04-09T17:06:05.027Z,99856.38
2023-04-09T17:08:52.373Z,99865.88
2023-04-09T17:11:39.674Z,99877.00
2023-04-09T17:14:27.609Z,99866.19
2023-04-09T17:17:14.671Z,99885.00
2023-04-09T17:20:01.935Z,99876.63
2023-04-09T17:22:49.020Z,99875.72
2023-04-09T17:25:36.489Z,99876.88
2023-04-09T17:28:23.631Z,99879.84
2023-04-09T17:31:16.161Z,99891.91
2023-04-09T17:34:03.658Z,99877.19
2023-04-09T17:36:56.564Z,99883.94
2023-04-09T17:39:43.565Z,99879.25
2023-04-09T17:42:31.341Z,99884.16
2023-04-09T17:45:18.379Z,99893.53
2023-04-09T17:48:05.717Z,99895.34
2023-04-09T17:50:52.772Z,99898.13
2023-04-09T17:53:39.822Z,99887.44
2023-04-09T17:56:27.268Z,99905.69
2023-04-09T17:59:14.375Z,99896.84
2023-04-09T18:02:02.433Z,99911.88
2023-04-09T18:04:49.780Z,99910.81
2023-04-09T18:07:36.910Z,99913.66
2023-04-09T18:10:24.052Z,99916.34
2023-04-09T18:13:11.133Z,99920.97
2023-04-09T18:15:58.254Z,99926.38
2023-04-09T18:18:45.366Z,99916.84
2023-04-09T18:21:32.922Z,99916.53
2023-04-09T18:24:20.026Z,99927.31
2023-04-09T18:27:07.145Z,99907.97
2023-04-09T18:29:54.276Z,99919.00
2023-04-09T18:32:41.585Z,99924.53
2023-04-09T18:35:28.869Z,99922.16
2023-04-09T18:38:16.089Z,99923.06
2023-04-09T18:41:03.542Z,99954.41
2023-04-09T18:43:50.743Z,99952.47
2023-04-09T18:46:37.898Z,99952.38
2023-04-09T18:49:27.019Z,99966.66
2023-04-09T18:52:14.258Z,99954.28
2023-04-09T18:55:01.590Z,99952.56
2023-04-09T18:57:48.816Z,99958.38
2023-04-09T19:00:36.000Z,99963.41
2023-04-09T19:03:23.950Z,99958.41
2023-04-09T19:06:18.066Z,99967.94
2023-04-09T19:09:05.171Z,99976.22
2023-04-09T19:11:52.247Z,99982.78
2023-04-09T19:14:40.557Z,99985.06
2023-04-09T19:17:28.933Z,99988.13
2023-04-09T19:20:20.234Z,99974.66
2023-04-09T19:23:07.409Z,99969.38
2023-04-09T19:26:08.785Z,99981.56
2023-04-09T19:28:56.298Z,99979.59
2023-04-09T19:31:43.419Z,99986.44
2023-04-09T19:34:30.609Z,99982.91
2023-04-09T19:37:19.206Z,99984.13
2023-04-09T19:40:07.077Z,99966.06
2023-04-09T19:42:54.041Z,99969.47
2023-04-09T19:45:42.684Z,99980.69
2023-04-09T19:48:29.726Z,99986.44
2023-04-09T19:51:20.475Z,99987.38
2023-04-09T19:54:09.785Z,99984.22
2023-04-09T19:56:57.061Z,99979.66
2023-04-09T19:59:44.042Z,99988.00
2023-04-09T20:02:32.032Z,100004.03
2023-04-09T20:05:21.150Z,100003.94
2023-04-09T20:08:11.769Z,100006.78
2023-04-09T20:11:01.334Z,100014.25
2023-04-09T20:13:48.996Z,100014.13
2023-04-09T20:16:36.008Z,100019.72
2023-04-09T20:19:23.314Z,100012.75
2023-04-09T20:22:10.381Z,100009.41
2023-04-09T20:24:58.128Z,100011.72
2023-04-09T20:27:45.136Z,100015.53
2023-04-09T20:30:32.456Z,100016.38
2023-04-09T20:33:19.505Z,100013.22
2023-04-09T20:36:15.305Z,100009.69
2023-04-09T20:39:02.378Z,100022.81
2023-04-09T20:41:49.515Z,100025.28
2023-04-09T20:44:36.509Z,100029.91
2023-04-09T20:47:23.860Z,100016.19
2023-04-09T20:50:11.330Z,100035.66
2023-04-09T20:52:59.015Z,100037.56
2023-04-09T20:55:46.570Z,100028.69
2023-04-09T20:58:33.681Z,100039.00
2023-04-09T21:01:22.021Z,100023.00
2023-04-09T21:04:09.262Z,100025.28
2023-04-09T21:06:56.384Z,100034.81
2023-04-09T21:09:43.427Z,100050.34
2023-04-09T21:12:32.634Z,100046.28
2023-04-09T21:15:20.800Z,100050.31
2023-04-09T21:18:07.857Z,100053.81
2023-04-09T21:20:54.952Z,100047.25
2023-04-09T21:23:42.070Z,100042.41
2023-04-09T21:26:33.689Z,100042.72
2023-04-09T21:29:25.761Z,100040.63
2023-04-09T21:32:12.958Z,100051.25
2023-04-09T21:35:00.061Z,100051.31
2023-04-09T21:37:48.182Z,100058.63
2023-04-09T21:40:35.243Z,100056.28
2023-04-09T21:43:22.291Z,100043.81
2023-04-09T21:46:09.397Z,100062.38
2023-04-09T21:48:56.494Z,100059.06
2023-04-09T21:51:45.906Z,100052.19
2023-04-09T21:54:33.471Z,100056.72
2023-04-09T21:57:20.495Z,100067.38
2023-04-09T22:00:10.605Z,100055.44
2023-04-09T22:03:01.419Z,100064.72
2023-04-09T22:05:48.798Z,100054.13
2023-04-09T22:08:40.510Z,100072.41
2023-04-09T22:11:36.401Z,100058.84
2023-04-09T22:14:23.424Z,100067.78
2023-04-09T22:17:10.489Z,100067.94
2023-04-09T22:19:57.555Z,100072.97
2023-04-09T22:22:44.681Z,100075.81
2023-04-09T22:25:35.057Z,100071.19
2023-04-09T22:28:22.641Z,100077.41
2023-04-09T22:31:09.821Z,100081.56
2023-04-09T22:33:58.667Z,100090.09
2023-04-09T22:36:45.772Z,100095.25
2023-04-09T22:39:32.977Z,100089.78
2023-04-09T22:42:20.008Z,100091.97
2023-04-09T22:45:08.652Z,100091.97
2023-04-09T22:47:55.890Z,100105.00
2023-04-09T22:50:44.227Z,100096.25
2023-04-09T22:53:31.396Z,100114.31
2023-04-09T22:56:19.643Z,100115.00
2023-04-09T22:59:06.849Z,100109.63
2023-04-09T23:03:33.539Z,100099.81
2023-04-09T23:06:20.851Z,100099.81
2023-04-09T23:09:08.062Z,100115.44
2023-04-09T23:11:55.095Z,100118.78
2023-04-09T23:14:42.101Z,100115.19
2023-04-09T23:17:29.176Z,100103.28
2023-04-09T23:20:17.356Z,100090.31
2023-04-09T23:23:04.358Z,100092.34
2023-04-09T23:25:51.412Z,100097.97
2023-04-09T23:28:38.483Z,100104.97
2023-04-09T23:31:25.679Z,100099.41
2023-04-09T23:34:13.148Z,100090.88
2023-04-09T23:37:00.296Z,100090.13
2023-04-09T23:39:47.987Z,100093.41
2023-04-09T23:42:35.729Z,100096.69
2023-04-09T23:45:23.873Z,100096.16
2023-04-09T23:48:11.999Z,100098.59
2023-04-09T23:51:00.153Z,100082.88
2023-04-09T23:53:47.292Z,100078.41
2023-04-09T23:56:47.044Z,100080.94
2023-04-09T23:59:36.051Z,100064.22
